Time;durP1;ratioP1;P1;durP2;ratioP2;P2;SDS_P1;SDS_P2;PMS_P1;PMS_P2;Temp;Humidity;BMP_temperature;BMP_pressure;BME280_temperature;BME280_humidity;BME280_pressure;Samples;Min_cycle;Max_cycle;Signal;HPM_P1;HPM_P2
2024/04/05 00:02:18;;;;;;;7.53;3.25;;;;;;;17.56;37.06;99882.69;5090132;28;20040;-25
2024/04/05 00:04:44;;;;;;;6.07;3.08;;;;;;;17.57;36.85;99889.72;5093808;28;20050;-25
2024/04/05 00:07:10;;;;;;;6.45;3.47;;;;;;;17.50;37.25;99888.25;5094093;28;20429;-26
2024/04/05 00:09:35;;;;;;;8.00;3.65;;;;;;;17.50;37.00;99885.56;5093625;28;20107;-26
2024/04/05 00:12:01;;;;;;;7.88;3.72;;;;;;;17.54;36.78;99884.00;5093792;28;20034;-26
2024/04/05 00:14:26;;;;;;;4.57;3.22;;;;;;;17.43;37.18;99883.00;5093874;28;20050;-26
2024/04/05 00:16:52;;;;;;;5.75;3.70;;;;;;;16.86;37.71;99885.81;5093758;28;20030;-26
2024/04/05 00:19:17;;;;;;;5.68;3.58;;;;;;;16.83;38.42;99881.75;5093720;28;20468;-26
2024/04/05 00:21:43;;;;;;;6.25;3.50;;;;;;;16.92;38.30;99871.41;5093689;28;20020;-26
2024/04/05 00:24:08;;;;;;;4.35;3.03;;;;;;;17.10;37.29;99878.47;5093396;28;20024;-25
2024/04/05 00:26:35;;;;;;;5.97;3.50;;;;;;;16.68;38.13;99881.41;5093558;28;20040;-26
2024/04/05 00:29:01;;;;;;;5.53;3.17;;;;;;;16.77;37.33;99877.28;5093450;28;20043;-26
2024/04/05 00:31:26;;;;;;;4.03;2.50;;;;;;;16.80;37.29;99884.88;5093299;28;20381;-26
2024/04/05 00:33:53;;;;;;;5.03;2.40;;;;;;;16.97;37.87;99884.94;5093401;28;20066;-26
2024/04/05 00:36:19;;;;;;;3.65;2.28;;;;;;;16.66;37.60;99875.47;5093396;28;20050;-26
2024/04/05 00:38:45;;;;;;;4.43;2.20;;;;;;;16.67;37.66;99885.19;5093029;28;20105;-26
2024/04/05 00:41:10;;;;;;;4.18;2.47;;;;;;;16.57;38.12;99875.06;5093386;28;20032;-26
2024/04/05 00:43:35;;;;;;;4.00;2.25;;;;;;;16.25;38.33;99872.00;5093095;28;20012;-25
2024/04/05 00:46:04;;;;;;;6.22;2.45;;;;;;;16.13;38.86;99870.16;5092744;28;20035;-25
2024/04/05 00:48:33;;;;;;;3.93;2.40;;;;;;;16.13;38.60;99877.41;5092832;28;20024;-24
2024/04/05 00:50:58;;;;;;;4.20;2.67;;;;;;;16.21;38.28;99879.72;5093403;28;20013;-26
2024/04/05 00:53:26;;;;;;;3.50;2.15;;;;;;;16.38;38.67;99872.53;5093038;28;20027;-25
2024/04/05 00:55:55;;;;;;;3.75;2.22;;;;;;;16.30;38.49;99880.97;5093497;28;20035;-25
2024/04/05 00:58:21;;;;;;;7.43;2.28;;;;;;;16.16;39.19;99877.75;5093343;28;20109;-25
2024/04/05 01:00:46;;;;;;;3.45;2.00;;;;;;;16.41;38.68;99877.44;5093763;28;20196;-25
2024/04/05 01:03:12;;;;;;;6.40;2.13;;;;;;;16.28;38.40;99876.88;5093405;28;20032;-24
2024/04/05 01:05:39;;;;;;;3.60;2.15;;;;;;;16.46;38.24;99886.66;5093328;28;20107;-25
2024/04/05 01:08:05;;;;;;;3.85;2.03;;;;;;;16.21;38.92;99885.91;5093361;28;20099;-26
2024/04/05 01:10:31;;;;;;;5.63;1.85;;;;;;;16.53;37.92;99882.78;5093485;28;20028;-26
2024/04/05 01:12:58;;;;;;;4.00;1.90;;;;;;;16.73;37.73;99889.59;5092464;28;20020;-26
2024/04/05 01:15:23;;;;;;;3.47;1.70;;;;;;;16.33;38.63;99893.09;5092523;28;20027;-26
2024/04/05 01:17:50;;;;;;;4.80;1.70;;;;;;;16.41;38.23;99887.34;5093011;28;20530;-26
2024/04/05 01:20:17;;;;;;;3.95;1.85;;;;;;;16.46;38.16;99892.84;5093068;28;20050;-26
2024/04/05 01:22:50;;;;;;;3.67;1.80;;;;;;;16.48;38.54;99893.41;5092783;28;20069;-26
2024/04/05 01:25:16;;;;;;;3.03;1.67;;;;;;;16.54;38.26;99892.44;5092877;28;20024;-26
2024/04/05 01:27:44;;;;;;;2.75;1.80;;;;;;;16.21;39.05;99893.94;5092823;28;20031;-26
2024/04/05 01:30:10;;;;;;;3.30;1.83;;;;;;;16.43;39.32;99893.34;5092971;28;20472;-26
2024/04/05 01:32:35;;;;;;;2.90;1.70;;;;;;;16.36;38.93;99889.97;5092894;28;20062;-26
2024/04/05 01:35:01;;;;;;;3.00;1.77;;;;;;;16.48;38.72;99896.09;5092621;28;20456;-26
2024/04/05 01:37:26;;;;;;;2.70;1.80;;;;;;;16.61;38.22;99895.00;5092969;28;20028;-26
2024/04/05 01:39:52;;;;;;;4.07;1.95;;;;;;;16.78;38.47;99893.19;5092223;28;20130;-26
2024/04/05 01:42:17;;;;;;;3.10;1.90;;;;;;;16.89;37.94;99894.22;5091116;28;20348;-26
2024/04/05 01:44:42;;;;;;;2.85;1.80;;;;;;;16.78;37.89;99887.00;5087124;28;20480;-26
2024/04/05 01:47:08;;;;;;;3.42;1.80;;;;;;;16.72;38.04;99896.84;5072157;28;20504;-25
2024/04/05 01:49:33;;;;;;;3.28;1.83;;;;;;;16.77;38.02;99896.94;5072439;28;20025;-26
2024/04/05 01:51:59;;;;;;;2.70;1.88;;;;;;;16.52;38.30;99894.56;5072405;28;20032;-26
2024/04/05 01:54:25;;;;;;;3.67;1.90;;;;;;;16.18;38.88;99889.06;5072183;28;20027;-25
2024/04/05 01:56:51;;;;;;;3.00;1.90;;;;;;;16.27;38.77;99892.19;5072334;28;20032;-25
2024/04/05 01:59:16;;;;;;;3.25;1.90;;;;;;;16.35;38.04;99899.88;5071894;28;20146;-28
2024/04/05 02:01:41;;;;;;;2.75;1.85;;;;;;;15.92;39.01;99894.94;5072261;28;20021;-25
2024/04/05 02:04:07;;;;;;;3.22;1.92;;;;;;;15.95;39.43;99900.63;5072108;28;20020;-25
2024/04/05 02:06:32;;;;;;;5.05;1.80;;;;;;;16.00;38.91;99894.56;5071955;28;20021;-25
2024/04/05 02:08:59;;;;;;;3.35;1.90;;;;;;;15.80;40.25;99902.97;5072061;28;20031;-26
2024/04/05 02:11:24;;;;;;;4.18;1.90;;;;;;;15.86;39.54;99910.13;5071681;28;20029;-27
2024/04/05 02:13:50;;;;;;;2.33;1.70;;;;;;;15.42;40.87;99912.25;5071966;28;20024;-26
2024/04/05 02:16:15;;;;;;;3.88;1.70;;;;;;;15.51;40.31;99905.50;5071553;28;20032;-26
2024/04/05 02:18:40;;;;;;;2.20;1.50;;;;;;;15.58;40.15;99916.13;5071650;28;20451;-26
2024/04/05 02:21:06;;;;;;;2.90;1.92;;;;;;;15.78;39.49;99905.09;5071790;28;20012;-26
2024/04/05 02:23:31;;;;;;;3.15;1.70;;;;;;;15.79;39.84;99906.72;5076082;28;20438;-26
2024/04/05 02:25:57;;;;;;;2.97;1.80;;;;;;;15.71;39.73;99915.09;5091200;28;20024;-26
2024/04/05 02:28:22;;;;;;;5.43;1.92;;;;;;;15.78;39.80;99918.50;5091764;28;20024;-26
2024/04/05 02:30:48;;;;;;;3.25;1.83;;;;;;;15.74;40.17;99909.28;5091411;28;20088;-26
2024/04/05 02:33:13;;;;;;;4.63;1.90;;;;;;;15.76;40.01;99921.44;5091688;28;20024;-26
2024/04/05 02:35:39;;;;;;;4.10;2.00;;;;;;;15.88;40.15;99917.91;5091722;28;20035;-26
2024/04/05 02:38:05;;;;;;;2.38;1.73;;;;;;;15.80;39.95;99913.72;5091239;28;20067;-26
2024/04/05 02:40:31;;;;;;;2.92;1.95;;;;;;;15.81;40.79;99915.34;5091565;28;20088;-27
2024/04/05 02:42:56;;;;;;;5.45;1.80;;;;;;;16.03;39.74;99913.72;5090163;28;20047;-27
2024/04/05 02:45:22;;;;;;;6.45;1.92;;;;;;;15.84;39.66;99920.28;5091344;28;20107;-27
2024/04/05 02:47:47;;;;;;;3.03;1.92;;;;;;;16.12;38.91;99908.78;5090888;28;20024;-25
2024/04/05 02:50:13;;;;;;;4.53;2.00;;;;;;;15.86;40.19;99918.16;5090326;28;20421;-26
2024/04/05 02:52:38;;;;;;;4.07;2.00;;;;;;;15.70;39.75;99918.81;5091035;28;20043;-25
2024/04/05 02:55:05;;;;;;;2.67;1.80;;;;;;;15.43;40.83;99921.94;5090735;28;20523;-26
2024/04/05 02:57:31;;;;;;;3.75;1.90;;;;;;;15.46;40.39;99929.53;5091247;28;20153;-25
2024/04/05 02:59:56;;;;;;;2.72;1.92;;;;;;;15.17;41.51;99926.69;5090809;28;20039;-26
2024/04/05 03:02:22;;;;;;;4.40;1.90;;;;;;;15.32;41.22;99933.47;5090688;28;20032;-26
2024/04/05 03:04:47;;;;;;;4.85;2.00;;;;;;;15.33;41.26;99932.44;5090760;28;20047;-25
2024/04/05 03:07:12;;;;;;;3.00;2.13;;;;;;;15.42;40.64;99931.88;5091019;28;20494;-25
2024/04/05 03:09:40;;;;;;;3.40;2.00;;;;;;;15.57;40.28;99936.78;5090543;28;20023;-26
2024/04/05 03:12:06;;;;;;;4.65;2.00;;;;;;;15.61;40.57;99931.75;5091263;28;20024;-26
2024/04/05 03:14:31;;;;;;;3.50;2.10;;;;;;;15.73;40.91;99921.06;5091160;28;20030;-26
2024/04/05 03:16:57;;;;;;;3.88;1.90;;;;;;;15.80;40.58;99943.22;5091205;28;20456;-25
2024/04/05 03:19:23;;;;;;;4.00;2.10;;;;;;;15.67;40.64;99940.75;5090756;28;20166;-26
2024/04/05 03:21:49;;;;;;;3.53;1.70;;;;;;;15.72;40.16;99944.34;5090692;28;20101;-26
2024/04/05 03:24:14;;;;;;;3.95;2.20;;;;;;;15.35;40.85;99954.47;5091054;28;20011;-26
2024/04/05 03:26:42;;;;;;;6.43;2.45;;;;;;;15.42;41.30;99949.78;5090785;28;20138;-27
2024/04/05 03:29:07;;;;;;;5.88;2.78;;;;;;;15.49;41.17;99952.38;5090915;28;20020;-27
2024/04/05 03:31:33;;;;;;;3.75;1.85;;;;;;;15.36;41.22;99962.25;5091175;28;20043;-27
2024/04/05 03:33:58;;;;;;;4.85;1.95;;;;;;;15.29;41.13;99945.47;5090997;28;20123;-26
2024/04/05 03:36:24;;;;;;;2.97;1.85;;;;;;;15.05;41.64;99960.66;5091255;28;20024;-27
2024/04/05 03:38:52;;;;;;;4.88;2.00;;;;;;;15.01;41.61;99952.25;5092954;28;20461;-26
2024/04/05 03:41:18;;;;;;;5.95;1.88;;;;;;;15.27;40.93;99965.50;5095066;28;20051;-25
2024/04/05 03:43:43;;;;;;;3.58;1.92;;;;;;;15.10;41.52;99963.47;5094702;28;20133;-26
2024/04/05 03:46:08;;;;;;;2.55;1.90;;;;;;;15.76;52.63;99972.41;5094977;28;20031;-26
2024/04/05 03:48:34;;;;;;;3.50;1.67;;;;;;;15.99;41.89;99971.59;5094712;28;20268;-26
2024/04/05 03:50:59;;;;;;;2.92;1.95;;;;;;;15.80;41.18;99975.44;5094175;28;20415;-26
2024/04/05 03:53:25;;;;;;;9.60;3.60;;;;;;;15.57;41.65;99978.88;5094447;28;20051;-28
2024/04/05 03:55:56;;;;;;;5.88;2.20;;;;;;;15.61;42.00;99974.66;5094678;28;20043;-27
2024/04/05 03:58:22;;;;;;;6.13;2.50;;;;;;;15.32;41.83;99976.38;5094683;28;20038;-25
2024/04/05 04:00:55;;;;;;;3.75;1.90;;;;;;;15.29;42.26;99984.84;5094853;28;20099;-27
2024/04/05 04:03:20;;;;;;;5.53;1.75;;;;;;;15.11;42.28;99981.19;5094997;28;20055;-27
2024/04/05 04:05:46;;;;;;;3.60;1.80;;;;;;;15.45;41.92;99994.94;5095025;28;20089;-26
2024/04/05 04:08:11;;;;;;;3.63;2.10;;;;;;;16.80;50.93;100000.44;5094416;28;20059;-27
2024/04/05 04:10:38;;;;;;;9.13;1.67;;;;;;;16.61;41.33;99976.41;5094595;28;20384;-27
2024/04/05 04:13:04;;;;;;;2.17;1.60;;;;;;;17.16;40.01;99995.78;5094748;28;20024;-26
2024/04/05 04:15:30;;;;;;;7.97;1.95;;;;;;;17.31;39.65;100000.63;5094542;28;20115;-27
2024/04/05 04:17:55;;;;;;;3.03;1.80;;;;;;;17.46;39.29;100002.75;5094543;28;20028;-27
2024/04/05 04:20:21;;;;;;;7.30;1.80;;;;;;;17.76;37.98;100005.16;5094524;28;20679;-25
2024/04/05 04:22:46;;;;;;;4.85;2.33;;;;;;;18.14;46.25;100011.69;5094483;28;20341;-28
2024/04/05 04:25:12;;;;;;;4.20;2.10;;;;;;;18.58;44.97;100014.44;5094661;28;20032;-27
2024/04/05 04:27:38;;;;;;;3.97;2.20;;;;;;;19.08;42.07;100012.66;5094999;28;20424;-26
2024/04/05 04:30:05;;;;;;;5.20;1.95;;;;;;;19.49;43.93;100010.38;5094499;28;20483;-27
2024/04/05 04:32:35;;;;;;;4.47;2.20;;;;;;;19.97;42.77;100007.81;5094682;28;20110;-27
2024/04/05 04:35:01;;;;;;;9.10;2.38;;;;;;;20.20;37.15;100018.25;5094599;28;20476;-27
2024/04/05 04:37:27;;;;;;;6.63;2.13;;;;;;;20.34;33.91;100015.91;5094100;28;20085;-27
2024/04/05 04:39:52;;;;;;;3.75;1.77;;;;;;;20.38;33.85;100018.91;5094359;28;20047;-27
2024/04/05 04:42:17;;;;;;;8.98;2.50;;;;;;;20.43;33.71;100016.22;5094406;28;20035;-26
2024/04/05 04:44:43;;;;;;;6.80;2.35;;;;;;;20.77;32.92;100016.69;5093782;28;20028;-27
2024/04/05 04:47:09;;;;;;;8.00;2.65;;;;;;;20.71;32.92;100015.03;5093348;28;20024;-25
2024/04/05 04:49:35;;;;;;;9.98;2.60;;;;;;;21.09;32.75;100023.81;5092709;28;20027;-26
2024/04/05 04:52:00;;;;;;;5.78;2.40;;;;;;;21.22;32.50;100019.78;5093016;28;20228;-27
2024/04/05 04:54:27;;;;;;;6.55;2.58;;;;;;;21.61;32.01;100022.03;5093504;28;20024;-25
2024/04/05 04:56:53;;;;;;;9.18;2.53;;;;;;;21.68;31.28;100017.16;5093313;28;20031;-27
2024/04/05 04:59:18;;;;;;;5.25;2.10;;;;;;;22.10;31.02;100028.81;5093447;28;20020;-27
2024/04/05 05:01:44;;;;;;;8.55;2.60;;;;;;;22.39;30.62;100026.31;5094137;28;20024;-26
2024/04/05 05:04:12;;;;;;;3.50;1.95;;;;;;;22.60;30.02;100029.81;5093774;28;20012;-26
2024/04/05 05:06:37;;;;;;;5.75;2.05;;;;;;;22.76;29.79;100028.66;5093955;28;20024;-26
2024/04/05 05:09:03;;;;;;;4.43;1.83;;;;;;;22.76;29.62;100023.22;5093964;28;20023;-27
2024/04/05 05:11:28;;;;;;;5.13;1.98;;;;;;;23.21;29.35;100036.91;5093656;28;20068;-26
2024/04/05 05:13:54;;;;;;;6.20;2.10;;;;;;;23.58;28.84;100027.41;5094009;28;20039;-26
2024/04/05 05:16:19;;;;;;;5.85;2.00;;;;;;;23.89;28.47;100036.13;5094258;28;20526;-26
2024/04/05 05:18:45;;;;;;;7.15;2.03;;;;;;;24.10;28.32;100035.97;5093596;28;20012;-26
2024/04/05 05:21:10;;;;;;;4.80;1.95;;;;;;;24.48;27.45;100036.13;5093507;28;20544;-26
2024/04/05 05:23:35;;;;;;;10.73;2.05;;;;;;;24.42;27.71;100038.09;5094094;28;20120;-27
2024/04/05 05:26:03;;;;;;;8.50;2.17;;;;;;;24.56;27.52;100041.78;5093611;28;20459;-27
2024/04/05 05:28:28;;;;;;;7.88;3.78;;;;;;;24.34;27.75;100028.66;5093550;28;20055;-28
2024/04/05 05:30:54;;;;;;;5.30;2.20;;;;;;;24.93;27.40;100040.22;5093702;28;20044;-26
2024/04/05 05:33:19;;;;;;;7.88;2.20;;;;;;;24.71;27.89;100038.06;5093239;28;20101;-26
2024/04/05 05:35:45;;;;;;;8.95;2.35;;;;;;;25.00;27.75;100031.72;5093552;28;20103;-26
2024/04/05 05:38:10;;;;;;;6.78;2.15;;;;;;;25.27;27.61;100033.81;5093267;28;20102;-25
2024/04/05 05:40:36;;;;;;;7.57;2.25;;;;;;;26.00;26.39;100028.06;5093237;28;20391;-27
2024/04/05 05:43:02;;;;;;;11.50;4.35;;;;;;;26.30;26.42;100034.88;5093520;28;20026;-26
2024/04/05 05:45:30;;;;;;;9.95;2.80;;;;;;;26.71;25.56;100040.41;5093420;28;20016;-28
2024/04/05 05:47:56;;;;;;;5.00;2.10;;;;;;;27.08;25.05;100037.72;5093344;28;20113;-26
2024/04/05 05:50:25;;;;;;;5.85;2.17;;;;;;;26.87;25.44;100034.63;5093335;28;20055;-27
2024/04/05 05:52:51;;;;;;;;;;;;;;;26.90;25.44;100050.38;5093495;28;20072;-28
2024/04/05 05:55:16;;;;;;;8.43;2.42;;;;;;;26.70;25.47;100046.16;5092457;28;19908;-27
2024/04/05 05:57:42;;;;;;;9.90;2.50;;;;;;;27.40;25.76;100055.06;5093101;28;20085;-26
2024/04/05 06:00:11;;;;;;;6.32;2.00;;;;;;;27.41;25.26;100062.94;5092308;28;20020;-26
2024/04/05 06:02:40;;;;;;;8.45;2.10;;;;;;;27.32;26.14;100056.59;5092422;28;20020;-27
2024/04/05 06:05:08;;;;;;;5.80;2.22;;;;;;;27.47;26.03;100060.91;5093267;28;20051;-27
2024/04/05 06:07:34;;;;;;;6.63;1.92;;;;;;;27.23;25.33;100061.97;5092933;28;20419;-27
2024/04/05 06:09:59;;;;;;;7.30;2.10;;;;;;;27.05;25.88;100068.34;5092565;28;20062;-30
2024/04/05 06:12:26;;;;;;;8.57;1.90;;;;;;;27.29;26.48;100065.41;5092715;28;20031;-27
2024/04/05 06:14:55;;;;;;;7.85;1.80;;;;;;;27.56;26.82;100067.25;5092557;28;20028;-27
2024/04/05 06:17:24;;;;;;;5.50;2.10;;;;;;;27.53;26.29;100067.88;5088520;28;20028;-27
2024/04/05 06:19:54;;;;;;;4.45;2.10;;;;;;;28.04;25.00;100066.63;5090558;28;20027;-26
2024/04/05 06:22:21;;;;;;;6.00;1.85;;;;;;;28.35;25.70;100070.50;5092280;28;20024;-28
2024/04/05 06:24:51;;;;;;;3.85;2.10;;;;;;;27.96;25.86;100067.41;5092773;28;20047;-26
2024/04/05 06:27:17;;;;;;;7.40;3.00;;;;;;;28.58;27.51;100068.56;5092570;28;20099;-27
2024/04/05 06:29:46;;;;;;;5.90;2.30;;;;;;;29.12;24.17;100073.84;5092491;28;20076;-27
2024/04/05 06:32:12;;;;;;;9.63;2.05;;;;;;;28.85;24.04;100078.47;5092699;28;20063;-28
2024/04/05 06:34:41;;;;;;;4.63;1.55;;;;;;;29.14;24.45;100080.66;5091993;28;20472;-28
2024/04/05 06:37:06;;;;;;;;;;;;;;;30.06;23.24;100079.66;5092980;28;20028;-27
2024/04/05 06:39:33;;;;;;;7.82;2.10;;;;;;;30.20;23.17;100069.31;5092057;28;19920;-26
2024/04/05 06:41:58;;;;;;;4.65;2.30;;;;;;;29.74;22.58;100073.63;5092630;28;20115;-28
2024/04/05 06:44:23;;;;;;;8.10;1.70;;;;;;;28.78;23.18;100083.59;5091618;28;20134;-28
2024/04/05 06:46:51;;;;;;;3.08;1.40;;;;;;;26.77;25.07;100087.50;5092052;28;20106;-26
2024/04/05 06:49:17;;;;;;;4.88;1.90;;;;;;;27.07;25.19;100086.06;5092003;28;20031;-28
2024/04/05 06:51:42;;;;;;;5.35;2.42;;;;;;;27.48;25.34;100087.13;5091473;28;20012;-28
2024/04/05 06:54:07;;;;;;;7.07;1.70;;;;;;;28.15;24.67;100091.00;5091242;28;20388;-27
2024/04/05 06:56:33;;;;;;;3.50;1.75;;;;;;;28.10;24.47;100102.88;5091090;28;20028;-27
2024/04/05 06:58:58;;;;;;;5.05;1.42;;;;;;;27.87;24.24;100099.31;5091048;28;20028;-28
2024/04/05 07:01:24;;;;;;;3.10;1.50;;;;;;;28.31;23.87;100092.25;5091239;28;20058;-28
2024/04/05 07:03:49;;;;;;;5.90;1.73;;;;;;;28.08;24.39;100094.16;5090687;28;20700;-27
2024/04/05 07:06:16;;;;;;;4.63;1.80;;;;;;;27.95;23.67;100106.00;5091171;28;20031;-28
2024/04/05 07:08:41;;;;;;;5.18;1.55;;;;;;;27.25;24.54;100100.72;5090778;28;20023;-28
2024/04/05 07:11:09;;;;;;;2.92;1.30;;;;;;;26.66;25.46;100106.00;5091213;28;20465;-27
2024/04/05 07:13:35;;;;;;;3.28;1.40;;;;;;;26.76;25.49;100110.44;5090807;28;20028;-27
2024/04/05 07:16:01;;;;;;;6.40;1.40;;;;;;;27.26;25.18;100116.00;5072971;28;20082;-28
2024/04/05 07:18:26;;;;;;;3.40;1.48;;;;;;;27.39;24.94;100100.69;5091343;28;20035;-27
2024/04/05 07:20:54;;;;;;;2.58;1.30;;;;;;;27.30;24.80;100106.09;5090865;28;20016;-28
2024/04/05 07:23:20;;;;;;;3.22;1.40;;;;;;;26.23;25.46;100108.91;5090963;28;20082;-27
2024/04/05 07:25:46;;;;;;;3.20;1.48;;;;;;;26.40;25.68;100108.34;5077485;28;20035;-29
2024/04/05 07:28:11;;;;;;;5.78;1.70;;;;;;;26.33;26.05;100102.47;5091084;28;20032;-27
2024/04/05 07:30:38;;;;;;;5.65;1.70;;;;;;;26.25;26.33;100117.59;5091335;28;20090;-28
2024/04/05 07:33:03;;;;;;;5.72;1.70;;;;;;;26.13;26.11;100118.06;5091011;28;20103;-32
2024/04/05 07:35:30;;;;;;;7.25;1.80;;;;;;;26.36;26.97;100112.00;5090634;28;20223;-28
2024/04/05 07:37:56;;;;;;;2.67;1.70;;;;;;;26.37;25.88;100116.31;5090330;28;20024;-26
2024/04/05 07:40:23;;;;;;;2.95;1.35;;;;;;;26.71;26.01;100113.25;5090486;28;20063;-31
2024/04/05 07:42:52;;;;;;;5.13;1.70;;;;;;;25.37;27.07;100120.03;5090505;28;20418;-28
2024/04/05 07:45:22;;;;;;;3.90;1.40;;;;;;;24.86;27.67;100117.91;5090389;28;20077;-29
2024/04/05 07:47:49;;;;;;;7.70;1.65;;;;;;;24.62;28.15;100113.28;5091086;28;20031;-28
2024/04/05 07:50:18;;;;;;;2.72;1.50;;;;;;;24.59;28.54;100114.63;5089755;28;20110;-28
2024/04/05 07:52:44;;;;;;;3.72;1.70;;;;;;;24.36;28.56;100121.63;5087717;28;20038;-27
2024/04/05 07:55:10;;;;;;;5.05;1.42;;;;;;;24.31;30.01;100118.16;5090167;28;20023;-27
2024/04/05 07:57:39;;;;;;;3.45;1.50;;;;;;;24.84;28.62;100115.47;5090667;28;20046;-27
2024/04/05 08:00:14;;;;;;;3.70;1.90;;;;;;;25.27;27.82;100120.16;5087241;28;20056;-28
2024/04/05 08:02:50;;;;;;;5.40;1.67;;;;;;;24.78;28.85;100119.34;5070372;28;20442;-27
2024/04/05 08:05:16;;;;;;;5.30;1.40;;;;;;;25.25;28.60;100122.38;5070443;28;20111;-27
2024/04/05 08:07:42;;;;;;;6.47;1.98;;;;;;;25.01;27.98;100125.09;5069987;28;20158;-27
2024/04/05 08:10:09;;;;;;;6.97;1.80;;;;;;;24.24;28.74;100114.94;5070841;28;20112;-27
2024/04/05 08:12:35;;;;;;;5.10;1.60;;;;;;;23.87;29.25;100119.06;5070864;28;20436;-27
2024/04/05 08:15:01;;;;;;;5.03;1.50;;;;;;;24.18;28.85;100112.28;5070846;28;20031;-28
2024/04/05 08:17:26;;;;;;;9.95;2.08;;;;;;;24.39;28.70;100126.50;5070965;28;20424;-26
2024/04/05 08:19:52;;;;;;;5.38;1.80;;;;;;;23.96;29.31;100115.44;5070924;28;20023;-27
2024/04/05 08:22:17;;;;;;;7.18;2.05;;;;;;;24.87;28.21;100119.53;5070275;28;20036;-29
2024/04/05 08:24:43;;;;;;;6.38;1.48;;;;;;;24.49;28.91;100122.06;5071704;28;20025;-26
2024/04/05 08:27:09;;;;;;;7.32;1.80;;;;;;;24.80;28.46;100108.19;5074595;28;20028;-26
2024/04/05 08:29:35;;;;;;;3.45;1.55;;;;;;;24.92;27.89;100124.91;5073975;28;20044;-28
2024/04/05 08:32:01;;;;;;;5.00;2.20;;;;;;;24.04;29.02;100118.66;5074163;28;20024;-27
2024/04/05 08:34:26;;;;;;;4.88;1.80;;;;;;;24.72;28.50;100123.22;5074110;28;20115;-27
2024/04/05 08:36:52;;;;;;;3.22;1.52;;;;;;;24.65;28.65;100117.31;5073884;28;20028;-28
2024/04/05 08:39:18;;;;;;;2.72;1.40;;;;;;;25.02;27.84;100110.34;5093103;28;20424;-28
2024/04/05 08:41:47;;;;;;;5.57;1.42;;;;;;;24.65;28.64;100112.66;5093973;28;20043;-26
2024/04/05 08:44:14;;;;;;;1.50;1.10;;;;;;;24.34;29.28;100110.22;5094273;28;20019;-26
2024/04/05 08:46:40;;;;;;;3.72;1.40;;;;;;;24.61;28.84;100108.91;5094198;28;20028;-27
2024/04/05 08:49:07;;;;;;;2.70;1.90;;;;;;;24.28;29.21;100105.13;5093873;28;20047;-27
2024/04/05 08:51:34;;;;;;;6.57;1.80;;;;;;;24.92;28.87;100109.41;5094042;28;20016;-27
2024/04/05 08:53:59;;;;;;;2.60;1.73;;;;;;;24.80;28.92;100106.25;5094330;28;20020;-28
2024/04/05 08:56:28;;;;;;;6.22;1.58;;;;;;;24.70;28.39;100112.63;5093988;28;20028;-28
2024/04/05 08:58:54;;;;;;;5.20;1.50;;;;;;;25.33;27.89;100106.19;5093703;28;20498;-26
2024/04/05 09:01:20;;;;;;;2.35;1.30;;;;;;;24.95;28.59;100106.06;5093842;28;20175;-27
2024/04/05 09:03:48;;;;;;;2.97;1.27;;;;;;;25.54;27.68;100101.25;5093846;28;20354;-28
2024/04/05 09:06:14;;;;;;;2.90;1.17;;;;;;;25.86;27.53;100093.44;5093813;28;20027;-28
2024/04/05 09:08:48;;;;;;;1.67;1.20;;;;;;;26.17;27.17;100096.47;5093618;28;20496;-27
2024/04/05 09:11:22;;;;;;;2.25;1.17;;;;;;;26.48;26.90;100099.47;5093431;28;20066;-27
2024/04/05 09:14:04;;;;;;;3.75;1.30;;;;;;;26.51;26.22;100090.69;5093334;28;20081;-30
2024/04/05 09:16:33;;;;;;;2.38;1.17;;;;;;;26.20;26.61;100086.88;5093179;28;20047;-28
2024/04/05 09:19:08;;;;;;;;;;;;;;;26.00;26.91;100091.59;5092384;28;20097;-27
2024/04/05 09:21:42;;;;;;;2.20;1.08;;;;;;;25.53;27.54;100093.38;5093171;28;19956;-26
2024/04/05 09:24:08;;;;;;;3.60;1.20;;;;;;;25.54;26.91;100092.28;5093164;28;20563;-28
2024/04/05 09:26:34;;;;;;;2.25;1.17;;;;;;;26.23;25.96;100084.38;5093317;28;20020;-27
2024/04/05 09:29:03;;;;;;;1.80;1.02;;;;;;;26.44;26.00;100095.72;5092613;28;20601;-27
2024/04/05 09:31:29;;;;;;;3.95;0.90;;;;;;;26.62;26.16;100085.06;5090036;28;20109;-28
2024/04/05 09:34:16;;;;;;;1.73;1.15;;;;;;;26.45;26.07;100086.44;5087299;28;20027;-28
2024/04/05 09:36:41;;;;;;;6.88;1.40;;;;;;;26.19;26.49;100079.81;5091582;28;20474;-27
2024/04/05 09:39:10;;;;;;;4.10;1.40;;;;;;;26.47;26.41;100088.88;5092825;28;20048;-28
2024/04/05 09:41:36;;;;;;;2.92;1.77;;;;;;;26.21;27.23;100093.97;5092940;28;20100;-29
2024/04/05 09:44:06;;;;;;;4.20;1.52;;;;;;;25.57;27.23;100094.41;5092672;28;20441;-28
2024/04/05 09:46:33;;;;;;;3.92;1.20;;;;;;;26.08;26.98;100095.53;5093007;28;20044;-30
2024/04/05 09:49:00;;;;;;;4.75;1.27;;;;;;;26.11;26.55;100094.94;5092767;28;20024;-27
2024/04/05 09:51:39;;;;;;;4.97;1.02;;;;;;;25.31;27.72;100086.59;5092522;28;20024;-30
2024/04/05 09:54:10;;;;;;;4.15;1.25;;;;;;;25.35;27.45;100092.28;5092566;28;20028;-30
2024/04/05 09:56:38;;;;;;;6.63;1.40;;;;;;;25.53;27.29;100075.13;5092433;28;20407;-29
2024/04/05 09:59:10;;;;;;;3.80;1.50;;;;;;;25.37;27.29;100090.06;5092860;28;20454;-29
2024/04/05 10:01:41;;;;;;;1.63;1.00;;;;;;;25.63;27.35;100087.78;5092856;28;20024;-28
2024/04/05 10:04:07;;;;;;;2.10;0.82;;;;;;;25.69;26.79;100083.88;5092513;28;20449;-27
2024/04/05 10:06:38;;;;;;;4.53;1.00;;;;;;;26.02;26.80;100088.56;5092528;28;20034;-28
2024/04/05 10:09:15;;;;;;;2.00;1.10;;;;;;;26.00;26.25;100091.59;5093118;28;20059;-27
2024/04/05 10:11:41;;;;;;;3.22;1.30;;;;;;;26.20;26.62;100090.44;5091657;28;20020;-27
2024/04/05 10:14:07;;;;;;;2.22;1.48;;;;;;;26.10;26.82;100087.88;5092179;28;20080;-27
2024/04/05 10:16:32;;;;;;;2.03;1.00;;;;;;;26.28;26.51;100070.66;5090851;28;20111;-29
2024/04/05 10:19:08;;;;;;;4.38;1.00;;;;;;;26.64;26.26;100074.66;5092211;28;20103;-27
2024/04/05 10:21:34;;;;;;;5.00;1.05;;;;;;;26.16;26.28;100080.41;5092405;28;20020;-27
2024/04/05 10:23:59;;;;;;;1.85;1.05;;;;;;;26.66;25.79;100069.72;5092312;28;20396;-30
2024/04/05 10:26:25;;;;;;;4.47;1.10;;;;;;;27.39;25.22;100081.56;5092401;28;20020;-28
2024/04/05 10:29:00;;;;;;;4.78;1.00;;;;;;;27.28;25.16;100086.47;5092018;28;20028;-26
2024/04/05 10:31:26;;;;;;;4.72;1.00;;;;;;;26.89;25.39;100082.31;5091902;28;20031;-30
2024/04/05 10:33:52;;;;;;;2.72;1.15;;;;;;;26.89;24.83;100079.59;5091925;28;20031;-28
2024/04/05 10:36:17;;;;;;;3.65;1.05;;;;;;;27.34;24.48;100070.78;5091950;28;20024;-27
2024/04/05 10:38:43;;;;;;;4.15;1.20;;;;;;;27.35;24.51;100066.09;5091500;28;20052;-27
2024/04/05 10:41:08;;;;;;;3.30;1.20;;;;;;;27.19;24.80;100063.69;5092083;28;20484;-27
2024/04/05 10:43:34;;;;;;;2.45;0.98;;;;;;;27.21;24.29;100066.13;5091403;28;20081;-30
2024/04/05 10:46:01;;;;;;;2.50;0.70;;;;;;;27.85;24.09;100064.09;5091714;28;20031;-30
2024/04/05 10:48:26;;;;;;;2.65;0.80;;;;;;;28.33;23.32;100043.47;5091708;28;20108;-27
2024/04/05 10:50:53;;;;;;;2.33;0.65;;;;;;;28.44;23.54;100055.75;5091936;28;20485;-29
2024/04/05 10:53:20;;;;;;;5.65;1.08;;;;;;;28.49;23.21;100052.06;5079781;28;20020;-29
2024/04/05 10:55:46;;;;;;;1.40;0.70;;;;;;;28.10;23.65;100041.91;5079013;28;20027;-28
2024/04/05 10:58:13;;;;;;;0.57;0.50;;;;;;;29.32;22.52;100045.03;5092407;28;20039;-28
2024/04/05 11:00:40;;;;;;;3.10;1.25;;;;;;;29.89;21.44;100044.88;5092042;28;20073;-29
2024/04/05 11:03:09;;;;;;;1.10;1.00;;;;;;;29.72;21.80;100033.88;5091871;28;20487;-28
2024/04/05 11:05:35;;;;;;;4.90;0.93;;;;;;;29.57;22.88;100025.03;5092320;28;20028;-28
2024/04/05 11:08:03;;;;;;;3.78;1.15;;;;;;;29.12;22.21;100039.03;5091393;28;20051;-27
2024/04/05 11:10:33;;;;;;;4.23;1.70;;;;;;;28.45;22.53;100030.00;5091280;28;20028;-26
2024/04/05 11:12:59;;;;;;;2.40;1.05;;;;;;;28.85;21.90;100037.38;5090793;28;20390;-29
2024/04/05 11:15:25;;;;;;;1.88;1.02;;;;;;;28.85;22.29;100027.22;5091024;28;20024;-28
2024/04/05 11:18:02;;;;;;;6.55;1.25;;;;;;;28.96;21.76;100033.22;5093848;28;20462;-28
2024/04/05 11:20:31;;;;;;;7.75;1.50;;;;;;;28.35;22.05;100030.28;5095855;28;20492;-29
2024/04/05 11:23:16;;;;;;;28.65;3.22;;;;;;;27.88;22.29;100022.47;5091236;28;20020;-28
2024/04/05 11:25:51;;;;;;;7.80;0.90;;;;;;;27.88;22.32;100027.13;5091350;28;20507;-29
2024/04/05 11:28:18;;;;;;;2.80;0.75;;;;;;;28.32;21.98;100019.97;5091864;28;20028;-31